Eider — VRAG4 — position and weather

sailwx.info

Track history (hours):
 
Tides and Currents Weather Stations Pressure Air Temp Water Temp Dewpoint Dewpoint Depression Visibility Wind Speed Wind Dir Waves Ship Positions

Eider

Last reported at 2017-Nov-08 01:23 UTC. Time now 2017-Nov-18 03:04 UTC.
Position N 45°14' W 074°13'.
Warning: this ship's position is 10 days out of date.

Length 200 m; draft 7.9 m.

Type: Cargo ship. MMSI: 477480600.

Date/timePositionNaut miles runAvg speedWind from/ knotsBaromVisibWave heightAir tempDewpointWater temp
2017-Nov-08 01:23N 45°14' W 074°13'4 8.6
2017-Nov-08 00:54N 45°14' W 074°07'3 7.6
2017-Nov-08 00:27N 45°13' W 074°02'4 8.8
2017-Nov-08 00:00N 45°16' W 073°57'3 5.8
2017-Nov-07 23:30N 45°18' W 073°56'0 0.7
2017-Nov-07 23:00N 45°19' W 073°55'0 0.9
2017-Nov-07 22:30N 45°19' W 073°55'1 1.3
2017-Nov-07 22:00N 45°20' W 073°55'3 6.8
2017-Nov-07 21:30N 45°21' W 073°51'5 9.0
2017-Nov-07 21:00N 45°24' W 073°46'4 7.6
2017-Nov-07 20:30N 45°25' W 073°40'3 5.1
2017-Nov-07 20:00N 45°24' W 073°37'2 3.8
2017-Nov-07 19:30N 45°24' W 073°34'1 0.8
2017-Nov-07 18:52N 45°24' W 073°33'1 1.7
2017-Nov-07 18:08N 45°25' W 073°32'1 3.7
2017-Nov-07 17:59N 45°25' W 073°31'7 1.9
2017-Nov-07 14:20N 45°32' W 073°32'2 0.3
2017-Nov-07 08:15N 45°34' W 073°31'  
Track history (hours):
 
Tides and Currents Weather Stations Pressure Air Temp Water Temp Dewpoint Dewpoint Depression Visibility Wind Speed Wind Dir Waves Ship Positions

Eider

Last reported at 2017-Nov-08 01:23 UTC. Time now 2017-Nov-18 03:04 UTC.
Position N 45°14' W 074°13'.
Warning: this ship's position is 10 days out of date.

Length 200 m; draft 7.9 m.

Type: Cargo ship. MMSI: 477480600.

Date/timePositionNaut miles runAvg speedWind from/ knotsBaromVisibWave heightAir tempDewpointWater temp
2017-Nov-08 01:23N 45°14' W 074°13'4 8.6
2017-Nov-08 00:54N 45°14' W 074°07'3 7.6
2017-Nov-08 00:27N 45°13' W 074°02'4 8.8
2017-Nov-08 00:00N 45°16' W 073°57'3 5.8
2017-Nov-07 23:30N 45°18' W 073°56'0 0.7
2017-Nov-07 23:00N 45°19' W 073°55'0 0.9
2017-Nov-07 22:30N 45°19' W 073°55'1 1.3
2017-Nov-07 22:00N 45°20' W 073°55'3 6.8
2017-Nov-07 21:30N 45°21' W 073°51'5 9.0
2017-Nov-07 21:00N 45°24' W 073°46'4 7.6
2017-Nov-07 20:30N 45°25' W 073°40'3 5.1
2017-Nov-07 20:00N 45°24' W 073°37'2 3.8
2017-Nov-07 19:30N 45°24' W 073°34'1 0.8
2017-Nov-07 18:52N 45°24' W 073°33'1 1.7
2017-Nov-07 18:08N 45°25' W 073°32'1 3.7
2017-Nov-07 17:59N 45°25' W 073°31'7 1.9
2017-Nov-07 14:20N 45°32' W 073°32'2 0.3
2017-Nov-07 08:15N 45°34' W 073°31'  

Dump ship's entire track history